FIN10H ENBO-EFRO

Flight info

Callsign FIN10H
Flight time 0h 48m
Altitude 37000
Route DISMU DCT NEMGU
Aircraft A320/M-SDE3FGHIRWY/LB1

Departure

Time 2026-05-08 13:08
Airport Bodø Airport (ENBO)

Arrival

Time 2026-05-08 13:57
Airport Rovaniemi Airport (EFRO)
Time Latitude Longitude Altitude Speed Heading
2026-05-08 12:45 67.27189 14.36916 44 ft 0 kts 292°
2026-05-08 13:01 67.27184 14.36948 47 ft 4 kts 292°
2026-05-08 13:01 67.27173 14.37012 43 ft 4 kts 292°
2026-05-08 13:01 67.27165 14.37065 44 ft 1 kts 292°
2026-05-08 13:01 67.27165 14.37066 44 ft 0 kts 292°
2026-05-08 13:04 67.27164 14.37059 44 ft 2 kts 266°
2026-05-08 13:04 67.27155 14.37083 44 ft 3 kts 108°
2026-05-08 13:04 67.27144 14.37155 50 ft 6 kts 118°
2026-05-08 13:05 67.27117 14.37245 53 ft 7 kts 116°
2026-05-08 13:05 67.27121 14.37419 54 ft 13 kts 77°
2026-05-08 13:05 67.27143 14.37686 56 ft 18 kts 78°
2026-05-08 13:05 67.27159 14.38049 51 ft 22 kts 88°
2026-05-08 13:06 67.27125 14.38360 54 ft 15 kts 153°
2026-05-08 13:06 67.27099 14.38629 54 ft 20 kts 80°
2026-05-08 13:06 67.27133 14.39029 51 ft 26 kts 78°
2026-05-08 13:06 67.27172 14.39505 52 ft 22 kts 78°
2026-05-08 13:07 67.27184 14.39635 51 ft 1 kts 15°
2026-05-08 13:07 67.27181 14.39603 51 ft 4 kts 238°
2026-05-08 13:07 67.27175 14.39557 51 ft 0 kts 256°
2026-05-08 13:07 67.27147 14.39227 52 ft 55 kts 258°
2026-05-08 13:08 67.27019 14.37644 50 ft 122 kts 257°
2026-05-08 13:08 67.26826 14.35087 236 ft 153 kts 262°
2026-05-08 13:08 67.26615 14.32423 921 ft 152 kts 261°
2026-05-08 13:08 67.26401 14.29707 1540 ft 157 kts 259°
2026-05-08 13:09 67.26171 14.26678 1804 ft 184 kts 258°
2026-05-08 13:09 67.25923 14.23238 2149 ft 203 kts 256°
2026-05-08 13:09 67.25190 14.19996 2460 ft 224 kts 223°
2026-05-08 13:09 67.23902 14.17371 2896 ft 247 kts 212°
2026-05-08 13:10 67.22424 14.14941 3752 ft 254 kts 209°
2026-05-08 13:10 67.20803 14.13170 4728 ft 255 kts 188°
2026-05-08 13:10 67.19042 14.13303 5668 ft 256 kts 164°
2026-05-08 13:10 67.17468 14.15470 6600 ft 262 kts 138°
2026-05-08 13:11 67.16416 14.19347 7406 ft 272 kts 111°
2026-05-08 13:11 67.16061 14.24190 8228 ft 280 kts 97°
2026-05-08 13:11 67.15851 14.29208 9084 ft 286 kts 97°
2026-05-08 13:11 67.15637 14.34370 9922 ft 292 kts 97°
2026-05-08 13:12 67.15414 14.39655 10589 ft 305 kts 97°
2026-05-08 13:12 67.15168 14.45294 10871 ft 329 kts 97°
2026-05-08 13:12 67.14902 14.51219 11321 ft 344 kts 97°
2026-05-08 13:12 67.14621 14.57385 12030 ft 350 kts 97°
2026-05-08 13:13 67.14332 14.63661 12815 ft 355 kts 97°
2026-05-08 13:13 67.14035 14.70030 13545 ft 361 kts 96°
2026-05-08 13:13 67.13733 14.76478 14240 ft 366 kts 96°
2026-05-08 13:13 67.13424 14.83028 14884 ft 372 kts 96°
2026-05-08 13:14 67.13109 14.89663 15522 ft 377 kts 96°
2026-05-08 13:14 67.12787 14.96388 16139 ft 382 kts 96°
2026-05-08 13:14 67.12458 15.03205 16776 ft 387 kts 96°
2026-05-08 13:14 67.12121 15.10098 17402 ft 392 kts 96°
2026-05-08 13:15 67.11780 15.17084 18025 ft 397 kts 96°
2026-05-08 13:15 67.11431 15.24166 18623 ft 401 kts 97°
2026-05-08 13:15 67.11068 15.31318 19165 ft 406 kts 97°
2026-05-08 13:15 67.10694 15.38545 19684 ft 411 kts 97°
2026-05-08 13:16 67.10315 15.45849 20209 ft 415 kts 97°
2026-05-08 13:16 67.09930 15.53234 20747 ft 420 kts 97°
2026-05-08 13:16 67.09538 15.60706 21279 ft 425 kts 97°
2026-05-08 13:16 67.09141 15.68280 21761 ft 431 kts 97°
2026-05-08 13:17 67.08737 15.75942 22285 ft 436 kts 97°
2026-05-08 13:17 67.08324 15.83703 22818 ft 440 kts 97°
2026-05-08 13:17 67.07902 15.91518 23317 ft 445 kts 97°
2026-05-08 13:17 67.07476 15.99314 23796 ft 449 kts 97°
2026-05-08 13:18 67.07035 16.07292 24211 ft 454 kts 97°
2026-05-08 13:18 67.06579 16.15451 24648 ft 457 kts 97°
2026-05-08 13:18 67.06129 16.23444 25058 ft 461 kts 97°
2026-05-08 13:18 67.05666 16.31600 25431 ft 464 kts 97°
2026-05-08 13:19 67.05197 16.39827 25812 ft 467 kts 98°
2026-05-08 13:19 67.04723 16.48078 26200 ft 470 kts 97°
2026-05-08 13:19 67.04238 16.56400 26531 ft 475 kts 97°
2026-05-08 13:19 67.03741 16.64800 26881 ft 478 kts 98°
2026-05-08 13:20 67.03237 16.73253 27243 ft 482 kts 98°
2026-05-08 13:20 67.02724 16.81749 27601 ft 485 kts 98°
2026-05-08 13:20 67.02204 16.90297 27951 ft 488 kts 98°
2026-05-08 13:20 67.01677 16.98905 28294 ft 491 kts 98°
2026-05-08 13:21 67.01142 17.07568 28650 ft 494 kts 98°
2026-05-08 13:21 67.00600 17.16255 28967 ft 497 kts 98°
2026-05-08 13:21 67.00051 17.25008 29265 ft 500 kts 98°
2026-05-08 13:21 66.99493 17.33806 29617 ft 503 kts 98°
2026-05-08 13:22 66.98926 17.42635 29898 ft 505 kts 99°
2026-05-08 13:22 66.98353 17.51522 30190 ft 508 kts 99°
2026-05-08 13:22 66.97770 17.60465 30421 ft 510 kts 99°
2026-05-08 13:22 66.97182 17.69413 30663 ft 512 kts 99°
2026-05-08 13:23 66.96585 17.78401 30922 ft 514 kts 99°
2026-05-08 13:23 66.95982 17.87398 31174 ft 516 kts 99°
2026-05-08 13:23 66.95371 17.96448 31410 ft 517 kts 99°
2026-05-08 13:23 66.94755 18.05500 31652 ft 519 kts 100°
2026-05-08 13:24 66.94129 18.14564 31957 ft 518 kts 100°
2026-05-08 13:24 66.93496 18.23602 32293 ft 517 kts 100°
2026-05-08 13:24 66.92859 18.32640 32554 ft 518 kts 100°
2026-05-08 13:24 66.92219 18.41680 32843 ft 518 kts 100°
2026-05-08 13:25 66.91579 18.50698 33154 ft 518 kts 100°
2026-05-08 13:25 66.90934 18.59717 33459 ft 517 kts 100°
2026-05-08 13:25 66.90284 18.68724 33790 ft 517 kts 101°
2026-05-08 13:25 66.89634 18.77603 34118 ft 516 kts 101°
2026-05-08 13:26 66.88960 18.86695 34426 ft 515 kts 101°
2026-05-08 13:26 66.88302 18.95518 34712 ft 514 kts 101°
2026-05-08 13:26 66.87634 19.04436 35007 ft 512 kts 101°
2026-05-08 13:26 66.86964 19.13327 35308 ft 510 kts 101°
2026-05-08 13:27 66.86291 19.22169 35590 ft 509 kts 101°
2026-05-08 13:27 66.85613 19.31003 35864 ft 507 kts 101°
2026-05-08 13:27 66.84935 19.39777 36140 ft 506 kts 101°
2026-05-08 13:27 66.84252 19.48537 36404 ft 504 kts 101°
2026-05-08 13:28 66.83565 19.57270 36669 ft 503 kts 101°
2026-05-08 13:28 66.82877 19.65932 36927 ft 501 kts 101°
2026-05-08 13:28 66.82187 19.74590 37163 ft 500 kts 101°
2026-05-08 13:28 66.81496 19.83236 37252 ft 498 kts 101°
2026-05-08 13:29 66.80108 20.00418 37260 ft 496 kts 101°
2026-05-08 13:29 66.78699 20.17541 37264 ft 496 kts 101°
2026-05-08 13:30 66.77267 20.34648 37266 ft 496 kts 101°
2026-05-08 13:30 66.75812 20.51765 37266 ft 496 kts 102°
2026-05-08 13:31 66.74344 20.68842 37267 ft 497 kts 102°
2026-05-08 13:31 66.72859 20.85916 37268 ft 497 kts 102°
2026-05-08 13:32 66.71370 21.02841 37279 ft 497 kts 102°
2026-05-08 13:32 66.69843 21.19854 37288 ft 497 kts 102°
2026-05-08 13:33 66.68297 21.36864 37281 ft 497 kts 102°
2026-05-08 13:33 66.66740 21.53844 37286 ft 497 kts 102°
2026-05-08 13:34 66.65167 21.70818 37292 ft 497 kts 102°
2026-05-08 13:34 66.63574 21.87747 37305 ft 496 kts 102°
2026-05-08 13:35 66.61963 22.04638 37189 ft 495 kts 103°
2026-05-08 13:35 66.61153 22.13034 36936 ft 494 kts 103°
2026-05-08 13:35 66.60337 22.21436 36684 ft 494 kts 103°
2026-05-08 13:36 66.59516 22.29833 35931 ft 498 kts 102°
2026-05-08 13:36 66.58682 22.38341 35036 ft 503 kts 102°
2026-05-08 13:36 66.57834 22.46943 34043 ft 509 kts 102°
2026-05-08 13:36 66.56973 22.55614 33106 ft 512 kts 102°
2026-05-08 13:37 66.56391 22.61425 32783 ft 507 kts 102°
2026-05-08 13:37 66.55247 22.72781 31873 ft 505 kts 102°
2026-05-08 13:37 66.54661 22.78557 31429 ft 504 kts 102°
2026-05-08 13:37 66.53518 22.89799 30564 ft 503 kts 102°
2026-05-08 13:38 66.52930 22.95544 30070 ft 503 kts 102°
2026-05-08 13:38 66.52060 23.04006 29411 ft 499 kts 102°
2026-05-08 13:38 66.51192 23.12402 28771 ft 496 kts 102°
2026-05-08 13:38 66.50324 23.20756 28148 ft 493 kts 101°
2026-05-08 13:39 66.49459 23.29031 27523 ft 489 kts 101°
2026-05-08 13:39 66.48597 23.37227 26921 ft 485 kts 101°
2026-05-08 13:39 66.47735 23.45368 26330 ft 482 kts 101°
2026-05-08 13:39 66.46877 23.53423 25772 ft 478 kts 101°
2026-05-08 13:40 66.46018 23.61439 25207 ft 474 kts 101°
2026-05-08 13:40 66.45177 23.69264 24650 ft 470 kts 101°
2026-05-08 13:40 66.44328 23.77103 24169 ft 465 kts 101°
2026-05-08 13:40 66.43481 23.84878 23573 ft 462 kts 101°
2026-05-08 13:41 66.42643 23.92535 23154 ft 453 kts 101°
2026-05-08 13:41 66.41813 24.00090 22605 ft 449 kts 101°
2026-05-08 13:41 66.40988 24.07552 22075 ft 442 kts 102°
2026-05-08 13:41 66.40174 24.14892 21429 ft 434 kts 102°
2026-05-08 13:42 66.39373 24.22059 20835 ft 425 kts 102°
2026-05-08 13:42 66.38586 24.29079 20229 ft 417 kts 103°
2026-05-08 13:42 66.37809 24.35963 19699 ft 407 kts 104°
2026-05-08 13:42 66.37047 24.42683 19182 ft 397 kts 104°
2026-05-08 13:43 66.36302 24.49240 18618 ft 389 kts 105°
2026-05-08 13:43 66.35570 24.55657 18084 ft 379 kts 105°
2026-05-08 13:43 66.34945 24.61915 17619 ft 367 kts 97°
2026-05-08 13:43 66.34803 24.68127 17192 ft 354 kts 85°
2026-05-08 13:44 66.35149 24.74094 16773 ft 342 kts 73°
2026-05-08 13:44 66.35929 24.79575 16365 ft 330 kts 62°
2026-05-08 13:44 66.36916 24.84667 15964 ft 322 kts 62°
2026-05-08 13:44 66.37867 24.89650 15575 ft 315 kts 62°
2026-05-08 13:45 66.38799 24.94592 15190 ft 314 kts 63°
2026-05-08 13:45 66.39720 24.99514 14810 ft 312 kts 63°
2026-05-08 13:45 66.40636 25.04409 14427 ft 312 kts 63°
2026-05-08 13:45 66.41557 25.09321 14027 ft 312 kts 63°
2026-05-08 13:46 66.42477 25.14226 13620 ft 312 kts 63°
2026-05-08 13:46 66.43391 25.19116 13223 ft 310 kts 63°
2026-05-08 13:46 66.44300 25.24002 12827 ft 309 kts 63°
2026-05-08 13:46 66.45202 25.28873 12426 ft 308 kts 63°
2026-05-08 13:47 66.46102 25.33714 12015 ft 307 kts 62°
2026-05-08 13:47 66.47211 25.38233 11614 ft 303 kts 50°
2026-05-08 13:47 66.48648 25.42060 11204 ft 300 kts 38°
2026-05-08 13:47 66.50301 25.45202 10807 ft 298 kts 34°
2026-05-08 13:48 66.51967 25.48299 10452 ft 296 kts 34°
2026-05-08 13:48 66.53595 25.51358 10349 ft 291 kts 34°
2026-05-08 13:48 66.55190 25.54374 10279 ft 290 kts 34°
2026-05-08 13:48 66.56809 25.57438 9914 ft 294 kts 35°
2026-05-08 13:49 66.58437 25.60519 9469 ft 293 kts 35°
2026-05-08 13:49 66.60065 25.63596 9143 ft 288 kts 35°
2026-05-08 13:49 66.61639 25.66580 8880 ft 278 kts 34°
2026-05-08 13:49 66.63173 25.69498 8217 ft 276 kts 34°
2026-05-08 13:50 66.64696 25.72409 7553 ft 273 kts 34°
2026-05-08 13:50 66.66197 25.75286 6973 ft 269 kts 35°
2026-05-08 13:50 66.67671 25.78116 6468 ft 265 kts 35°
2026-05-08 13:50 66.69142 25.80939 5982 ft 267 kts 36°
2026-05-08 13:51 66.70623 25.83783 5586 ft 266 kts 36°
2026-05-08 13:51 66.72088 25.86600 5162 ft 265 kts 36°
2026-05-08 13:51 66.73401 25.89847 4756 ft 266 kts 54°
2026-05-08 13:51 66.74030 25.94213 4343 ft 266 kts 85°
2026-05-08 13:52 66.73815 25.98722 4129 ft 256 kts 109°
2026-05-08 13:52 66.72902 26.02544 3782 ft 250 kts 136°
2026-05-08 13:52 66.71523 26.04958 3696 ft 234 kts 160°
2026-05-08 13:52 66.70005 26.05858 3568 ft 219 kts 183°
2026-05-08 13:53 66.68542 26.05400 3352 ft 207 kts 203°
2026-05-08 13:53 66.67301 26.03810 3113 ft 197 kts 219°
2026-05-08 13:53 66.66243 26.01773 2871 ft 184 kts 220°
2026-05-08 13:53 66.65269 25.99896 2618 ft 170 kts 221°
2026-05-08 13:54 66.64367 25.98161 2406 ft 153 kts 222°
2026-05-08 13:54 66.63567 25.96624 2175 ft 139 kts 218°
2026-05-08 13:54 66.62813 25.95173 1999 ft 134 kts 221°
2026-05-08 13:54 66.62086 25.93776 1802 ft 130 kts 223°
2026-05-08 13:55 66.61380 25.92420 1647 ft 128 kts 221°
2026-05-08 13:55 66.60665 25.91059 1446 ft 129 kts 221°
2026-05-08 13:55 66.59189 25.88247 1058 ft 137 kts 219°
2026-05-08 13:56 66.58428 25.86781 882 ft 140 kts 219°
2026-05-08 13:56 66.57661 25.85300 689 ft 136 kts 219°
2026-05-08 13:56 66.56952 25.83951 638 ft 117 kts 219°
2026-05-08 13:56 66.56429 25.82915 641 ft 72 kts 218°
2026-05-08 13:57 66.56192 25.82442 640 ft 12 kts 214°
2026-05-08 13:57 66.56119 25.82319 635 ft 16 kts 212°
2026-05-08 13:57 66.56029 25.82268 641 ft 11 kts 154°
2026-05-08 13:57 66.55963 25.82449 641 ft 17 kts 129°
2026-05-08 13:58 66.55895 25.82493 641 ft 12 kts 170°
2026-05-08 13:58 66.55844 25.82581 640 ft 0 kts 137°
2026-05-08 13:58 66.55834 25.82603 645 ft 4 kts 139°
2026-05-08 13:58 66.55822 25.82628 641 ft 0 kts 139°